sensor_id;sensor_type;location;lat;lon;timestamp;pressure;altitude;pressure_sealevel;temperature;humidity
25658;BME280;13517;59.320;18.042;2023-07-20T00:01:34;99746.63;;;12.82;100.00
25658;BME280;13517;59.320;18.042;2023-07-20T00:04:00;99652.88;;;12.19;100.00
25658;BME280;13517;59.320;18.042;2023-07-20T00:06:25;99743.03;;;12.72;100.00
25658;BME280;13517;59.320;18.042;2023-07-20T00:08:53;99745.16;;;12.68;100.00
25658;BME280;13517;59.320;18.042;2023-07-20T00:11:19;99710.28;;;12.44;100.00
25658;BME280;13517;59.320;18.042;2023-07-20T00:13:44;99687.56;;;12.35;100.00
25658;BME280;13517;59.320;18.042;2023-07-20T00:16:10;99659.00;;;12.11;100.00
25658;BME280;13517;59.320;18.042;2023-07-20T00:18:35;99708.28;;;12.46;100.00
25658;BME280;13517;59.320;18.042;2023-07-20T00:21:00;99669.13;;;12.19;100.00
25658;BME280;13517;59.320;18.042;2023-07-20T00:23:27;99675.13;;;12.22;100.00
25658;BME280;13517;59.320;18.042;2023-07-20T00:25:52;99704.56;;;12.37;100.00
25658;BME280;13517;59.320;18.042;2023-07-20T00:28:18;99720.13;;;12.45;100.00
25658;BME280;13517;59.320;18.042;2023-07-20T00:30:43;99715.41;;;12.37;100.00
25658;BME280;13517;59.320;18.042;2023-07-20T00:33:10;99729.13;;;12.45;100.00
25658;BME280;13517;59.320;18.042;2023-07-20T00:35:37;99563.66;;;11.45;100.00
25658;BME280;13517;59.320;18.042;2023-07-20T00:38:03;99708.19;;;12.26;100.00
25658;BME280;13517;59.320;18.042;2023-07-20T00:40:29;99743.91;;;12.41;100.00
25658;BME280;13517;59.320;18.042;2023-07-20T00:42:54;99689.34;;;12.15;100.00
25658;BME280;13517;59.320;18.042;2023-07-20T00:45:19;99711.47;;;12.20;100.00
25658;BME280;13517;59.320;18.042;2023-07-20T00:47:45;99701.31;;;12.12;100.00
25658;BME280;13517;59.320;18.042;2023-07-20T00:50:11;99691.88;;;12.06;100.00
25658;BME280;13517;59.320;18.042;2023-07-20T00:52:37;99731.66;;;12.37;100.00
25658;BME280;13517;59.320;18.042;2023-07-20T00:55:05;99672.28;;;11.93;100.00
25658;BME280;13517;59.320;18.042;2023-07-20T00:57:32;99743.72;;;12.33;100.00
25658;BME280;13517;59.320;18.042;2023-07-20T00:59:57;99699.00;;;12.07;100.00
25658;BME280;13517;59.320;18.042;2023-07-20T01:02:23;99706.84;;;12.10;100.00
25658;BME280;13517;59.320;18.042;2023-07-20T01:04:48;99737.59;;;12.31;100.00
25658;BME280;13517;59.320;18.042;2023-07-20T01:07:25;99738.72;;;12.28;100.00
25658;BME280;13517;59.320;18.042;2023-07-20T01:12:43;99704.31;;;12.09;100.00
25658;BME280;13517;59.320;18.042;2023-07-20T01:15:09;99737.72;;;12.29;100.00
25658;BME280;13517;59.320;18.042;2023-07-20T01:17:35;99690.41;;;12.02;100.00
25658;BME280;13517;59.320;18.042;2023-07-20T01:20:01;99729.16;;;12.24;100.00
25658;BME280;13517;59.320;18.042;2023-07-20T01:22:39;99728.91;;;12.27;100.00
25658;BME280;13517;59.320;18.042;2023-07-20T01:25:34;99705.72;;;12.13;100.00
25658;BME280;13517;59.320;18.042;2023-07-20T01:31:13;99722.03;;;12.23;100.00
25658;BME280;13517;59.320;18.042;2023-07-20T01:33:41;99715.91;;;12.21;100.00
25658;BME280;13517;59.320;18.042;2023-07-20T01:36:07;99721.56;;;12.18;100.00
25658;BME280;13517;59.320;18.042;2023-07-20T01:38:34;99702.31;;;12.11;100.00
25658;BME280;13517;59.320;18.042;2023-07-20T01:40:59;99710.16;;;12.14;100.00
25658;BME280;13517;59.320;18.042;2023-07-20T01:43:25;99734.44;;;12.25;100.00
25658;BME280;13517;59.320;18.042;2023-07-20T01:45:50;99706.84;;;12.10;100.00
25658;BME280;13517;59.320;18.042;2023-07-20T01:48:16;99696.56;;;12.04;100.00
25658;BME280;13517;59.320;18.042;2023-07-20T01:50:41;99681.69;;;11.98;100.00
25658;BME280;13517;59.320;18.042;2023-07-20T01:53:07;99725.84;;;12.20;100.00
25658;BME280;13517;59.320;18.042;2023-07-20T01:55:32;99668.63;;;11.82;100.00
25658;BME280;13517;59.320;18.042;2023-07-20T01:57:57;99699.00;;;12.07;100.00
25658;BME280;13517;59.320;18.042;2023-07-20T02:00:25;99696.56;;;12.04;100.00
25658;BME280;13517;59.320;18.042;2023-07-20T02:02:51;99663.81;;;11.86;100.00
25658;BME280;13517;59.320;18.042;2023-07-20T02:05:16;99679.94;;;11.88;100.00
25658;BME280;13517;59.320;18.042;2023-07-20T02:07:43;99640.94;;;11.69;100.00
25658;BME280;13517;59.320;18.042;2023-07-20T02:10:08;99706.41;;;12.05;100.00
25658;BME280;13517;59.320;18.042;2023-07-20T02:12:34;99680.38;;;11.93;100.00
25658;BME280;13517;59.320;18.042;2023-07-20T02:14:59;99702.50;;;11.98;100.00
25658;BME280;13517;59.320;18.042;2023-07-20T02:17:25;99705.66;;;12.03;100.00
25658;BME280;13517;59.320;18.042;2023-07-20T02:19:52;99679.22;;;11.85;100.00
25658;BME280;13517;59.320;18.042;2023-07-20T02:22:18;99662.91;;;11.76;100.00
25658;BME280;13517;59.320;18.042;2023-07-20T02:24:44;99676.63;;;11.84;100.00
25658;BME280;13517;59.320;18.042;2023-07-20T02:27:09;99681.56;;;11.79;100.00
25658;BME280;13517;59.320;18.042;2023-07-20T02:29:35;99676.31;;;11.77;100.00
25658;BME280;13517;59.320;18.042;2023-07-20T02:32:01;99713.44;;;11.96;100.00
25658;BME280;13517;59.320;18.042;2023-07-20T02:34:26;99641.16;;;11.56;100.00
25658;BME280;13517;59.320;18.042;2023-07-20T02:36:52;99706.88;;;11.89;100.00
25658;BME280;13517;59.320;18.042;2023-07-20T02:39:17;99654.88;;;11.64;100.00
25658;BME280;13517;59.320;18.042;2023-07-20T02:41:43;99685.22;;;11.89;100.00
25658;BME280;13517;59.320;18.042;2023-07-20T02:44:08;99667.06;;;11.80;100.00
25658;BME280;13517;59.320;18.042;2023-07-20T02:46:33;99676.81;;;11.92;100.00
25658;BME280;13517;59.320;18.042;2023-07-20T02:49:00;99665.88;;;11.94;100.00
25658;BME280;13517;59.320;18.042;2023-07-20T02:51:26;99637.69;;;11.96;100.00
25658;BME280;13517;59.320;18.042;2023-07-20T02:53:51;99689.06;;;12.18;100.00
25658;BME280;13517;59.320;18.042;2023-07-20T02:56:17;99700.81;;;12.28;100.00
25658;BME280;13517;59.320;18.042;2023-07-20T02:58:43;99652.88;;;12.19;100.00
25658;BME280;13517;59.320;18.042;2023-07-20T03:01:09;99686.53;;;12.57;100.00
25658;BME280;13517;59.320;18.042;2023-07-20T03:03:37;99676.13;;;12.62;100.00
25658;BME280;13517;59.320;18.042;2023-07-20T03:06:03;99704.13;;;12.92;100.00
25658;BME280;13517;59.320;18.042;2023-07-20T03:08:29;99681.59;;;13.02;100.00
25658;BME280;13517;59.320;18.042;2023-07-20T03:10:55;99651.91;;;13.10;100.00
25658;BME280;13517;59.320;18.042;2023-07-20T03:13:20;99718.50;;;13.54;100.00
25658;BME280;13517;59.320;18.042;2023-07-20T03:15:46;99668.19;;;13.30;100.00
25658;BME280;13517;59.320;18.042;2023-07-20T03:18:11;99667.75;;;13.34;100.00
25658;BME280;13517;59.320;18.042;2023-07-20T03:20:38;99704.13;;;13.91;100.00
25658;BME280;13517;59.320;18.042;2023-07-20T03:23:03;99659.25;;;13.97;100.00
25658;BME280;13517;59.320;18.042;2023-07-20T03:25:29;99667.34;;;14.44;100.00
25658;BME280;13517;59.320;18.042;2023-07-20T03:27:54;99695.41;;;14.91;100.00
25658;BME280;13517;59.320;18.042;2023-07-20T03:30:20;99667.78;;;14.68;100.00
25658;BME280;13517;59.320;18.042;2023-07-20T03:32:45;99672.72;;;14.54;100.00
25658;BME280;13517;59.320;18.042;2023-07-20T03:35:10;99672.06;;;14.14;100.00
25658;BME280;13517;59.320;18.042;2023-07-20T03:37:36;99710.22;;;14.13;100.00
25658;BME280;13517;59.320;18.042;2023-07-20T03:40:02;99681.88;;;13.78;100.00
25658;BME280;13517;59.320;18.042;2023-07-20T03:42:28;99711.56;;;13.89;100.00
25658;BME280;13517;59.320;18.042;2023-07-20T03:44:53;99692.44;;;13.71;100.00
25658;BME280;13517;59.320;18.042;2023-07-20T03:47:19;99682.22;;;13.55;100.00
25658;BME280;13517;59.320;18.042;2023-07-20T03:49:44;99698.03;;;13.79;100.00
25658;BME280;13517;59.320;18.042;2023-07-20T03:52:10;99663.66;;;13.50;100.00
25658;BME280;13517;59.320;18.042;2023-07-20T03:54:35;99700.00;;;13.77;100.00
25658;BME280;13517;59.320;18.042;2023-07-20T03:57:00;99668.47;;;13.56;100.00
25658;BME280;13517;59.320;18.042;2023-07-20T03:59:26;99679.31;;;13.66;100.00
25658;BME280;13517;59.320;18.042;2023-07-20T04:01:52;99706.31;;;13.78;100.00
25658;BME280;13517;59.320;18.042;2023-07-20T04:04:17;99663.22;;;13.55;100.00
25658;BME280;13517;59.320;18.042;2023-07-20T04:06:42;99708.31;;;13.75;100.00
25658;BME280;13517;59.320;18.042;2023-07-20T04:09:11;99703.59;;;13.78;100.00
25658;BME280;13517;59.320;18.042;2023-07-20T04:11:37;99725.84;;;14.01;100.00
25658;BME280;13517;59.320;18.042;2023-07-20T04:14:03;99698.97;;;13.88;100.00
25658;BME280;13517;59.320;18.042;2023-07-20T04:16:29;99706.09;;;13.99;100.00
25658;BME280;13517;59.320;18.042;2023-07-20T04:18:56;99725.50;;;14.14;100.00
25658;BME280;13517;59.320;18.042;2023-07-20T04:21:22;99669.28;;;13.86;100.00
25658;BME280;13517;59.320;18.042;2023-07-20T04:23:47;99716.34;;;14.15;100.00
25658;BME280;13517;59.320;18.042;2023-07-20T04:26:13;99728.91;;;14.16;100.00
25658;BME280;13517;59.320;18.042;2023-07-20T04:28:40;99699.69;;;14.00;100.00
25658;BME280;13517;59.320;18.042;2023-07-20T04:31:14;99728.91;;;14.16;100.00
25658;BME280;13517;59.320;18.042;2023-07-20T04:33:40;99723.50;;;14.16;100.00
25658;BME280;13517;59.320;18.042;2023-07-20T04:36:06;99685.28;;;13.89;100.00
25658;BME280;13517;59.320;18.042;2023-07-20T04:38:31;99668.88;;;13.81;100.00
25658;BME280;13517;59.320;18.042;2023-07-20T04:40:57;99654.59;;;13.79;100.00
25658;BME280;13517;59.320;18.042;2023-07-20T04:43:22;99706.63;;;14.12;100.00
25658;BME280;13517;59.320;18.042;2023-07-20T04:45:47;99679.97;;;13.98;100.00
25658;BME280;13517;59.320;18.042;2023-07-20T04:48:14;99689.56;;;13.92;100.00
25658;BME280;13517;59.320;18.042;2023-07-20T04:50:41;99713.28;;;14.00;100.00
25658;BME280;13517;59.320;18.042;2023-07-20T04:53:07;99642.53;;;13.54;100.00
25658;BME280;13517;59.320;18.042;2023-07-20T04:55:32;99664.75;;;13.67;100.00
25658;BME280;13517;59.320;18.042;2023-07-20T04:58:02;99708.44;;;13.94;100.00
25658;BME280;13517;59.320;18.042;2023-07-20T05:00:29;99699.56;;;13.82;100.00
25658;BME280;13517;59.320;18.042;2023-07-20T05:02:55;99708.44;;;13.94;100.00
25658;BME280;13517;59.320;18.042;2023-07-20T05:05:20;99655.66;;;13.58;100.00
25658;BME280;13517;59.320;18.042;2023-07-20T05:07:46;99700.56;;;13.81;100.00
25658;BME280;13517;59.320;18.042;2023-07-20T05:10:11;99688.78;;;13.62;100.00
25658;BME280;13517;59.320;18.042;2023-07-20T05:12:37;99699.63;;;13.72;100.00
25658;BME280;13517;59.320;18.042;2023-07-20T05:15:03;99701.59;;;13.70;100.00
25658;BME280;13517;59.320;18.042;2023-07-20T05:17:29;99723.88;;;13.73;100.00
25658;BME280;13517;59.320;18.042;2023-07-20T05:19:54;99686.31;;;13.59;100.00
25658;BME280;13517;59.320;18.042;2023-07-20T05:22:20;99716.47;;;13.75;100.00
25658;BME280;13517;59.320;18.042;2023-07-20T05:24:45;99678.06;;;13.51;100.00
25658;BME280;13517;59.320;18.042;2023-07-20T05:27:11;99667.63;;;13.56;100.00
25658;BME280;13517;59.320;18.042;2023-07-20T05:29:36;99676.78;;;13.55;100.00
25658;BME280;13517;59.320;18.042;2023-07-20T05:32:01;99676.22;;;13.61;100.00
25658;BME280;13517;59.320;18.042;2023-07-20T05:34:28;99685.63;;;13.57;100.00
25658;BME280;13517;59.320;18.042;2023-07-20T05:36:54;99698.75;;;13.61;100.00
25658;BME280;13517;59.320;18.042;2023-07-20T05:39:20;99701.34;;;13.63;100.00
25658;BME280;13517;59.320;18.042;2023-07-20T05:41:45;99684.50;;;13.59;100.00
25658;BME280;13517;59.320;18.042;2023-07-20T05:44:10;99655.06;;;13.45;100.00
25658;BME280;13517;59.320;18.042;2023-07-20T05:46:36;99658.38;;;13.48;100.00
25658;BME280;13517;59.320;18.042;2023-07-20T05:49:01;99713.88;;;13.84;100.00
25658;BME280;13517;59.320;18.042;2023-07-20T05:51:27;99703.88;;;13.74;100.00
25658;BME280;13517;59.320;18.042;2023-07-20T05:53:52;99714.72;;;13.84;100.00
25658;BME280;13517;59.320;18.042;2023-07-20T05:56:18;99667.88;;;13.72;100.00
25658;BME280;13517;59.320;18.042;2023-07-20T05:58:43;99690.03;;;13.78;100.00
25658;BME280;13517;59.320;18.042;2023-07-20T06:01:09;99681.44;;;13.82;100.00
25658;BME280;13517;59.320;18.042;2023-07-20T06:03:34;99705.81;;;14.02;100.00
25658;BME280;13517;59.320;18.042;2023-07-20T06:06:00;99688.41;;;13.95;100.00
25658;BME280;13517;59.320;18.042;2023-07-20T06:08:27;99700.09;;;13.95;100.00
25658;BME280;13517;59.320;18.042;2023-07-20T06:10:53;99656.75;;;13.75;100.00
25658;BME280;13517;59.320;18.042;2023-07-20T06:13:18;99663.59;;;13.80;100.00
25658;BME280;13517;59.320;18.042;2023-07-20T06:15:43;99688.28;;;13.86;100.00
25658;BME280;13517;59.320;18.042;2023-07-20T06:18:09;99663.88;;;13.77;100.00
25658;BME280;13517;59.320;18.042;2023-07-20T06:20:34;99707.66;;;14.11;100.00
25658;BME280;13517;59.320;18.042;2023-07-20T06:23:00;99692.34;;;14.10;100.00
25658;BME280;13517;59.320;18.042;2023-07-20T06:25:25;99667.38;;;13.97;100.00
25658;BME280;13517;59.320;18.042;2023-07-20T06:27:51;99708.50;;;14.22;100.00
25658;BME280;13517;59.320;18.042;2023-07-20T06:30:17;99697.72;;;14.30;100.00
25658;BME280;13517;59.320;18.042;2023-07-20T06:32:43;99677.22;;;14.08;100.00
25658;BME280;13517;59.320;18.042;2023-07-20T06:35:09;99703.63;;;14.25;100.00
25658;BME280;13517;59.320;18.042;2023-07-20T06:37:35;99653.81;;;13.97;100.00
25658;BME280;13517;59.320;18.042;2023-07-20T06:40:02;99681.91;;;14.15;100.00
25658;BME280;13517;59.320;18.042;2023-07-20T06:42:27;99692.28;;;14.30;100.00
25658;BME280;13517;59.320;18.042;2023-07-20T06:44:53;99653.19;;;14.13;100.00
25658;BME280;13517;59.320;18.042;2023-07-20T06:47:18;99679.88;;;14.27;100.00
25658;BME280;13517;59.320;18.042;2023-07-20T06:49:44;99684.47;;;14.45;100.00
25658;BME280;13517;59.320;18.042;2023-07-20T06:52:09;99667.38;;;14.35;100.00
25658;BME280;13517;59.320;18.042;2023-07-20T06:54:34;99695.31;;;14.55;100.00
25658;BME280;13517;59.320;18.042;2023-07-20T06:57:00;99701.00;;;14.62;100.00
25658;BME280;13517;59.320;18.042;2023-07-20T06:59:25;99699.22;;;14.70;100.00
25658;BME280;13517;59.320;18.042;2023-07-20T07:01:50;99645.28;;;14.48;100.00
25658;BME280;13517;59.320;18.042;2023-07-20T07:04:16;99670.38;;;14.60;100.00
25658;BME280;13517;59.320;18.042;2023-07-20T07:06:41;99641.19;;;14.43;100.00
25658;BME280;13517;59.320;18.042;2023-07-20T07:09:07;99671.81;;;14.64;100.00
25658;BME280;13517;59.320;18.042;2023-07-20T07:11:33;99637.00;;;14.49;100.00
25658;BME280;13517;59.320;18.042;2023-07-20T07:13:59;99661.34;;;14.69;100.00
25658;BME280;13517;59.320;18.042;2023-07-20T07:16:25;99664.88;;;14.79;100.00
25658;BME280;13517;59.320;18.042;2023-07-20T07:18:50;99695.13;;;14.94;100.00
25658;BME280;13517;59.320;18.042;2023-07-20T07:21:16;99669.69;;;14.86;100.00
25658;BME280;13517;59.320;18.042;2023-07-20T07:23:41;99670.25;;;14.89;100.00
25658;BME280;13517;59.320;18.042;2023-07-20T07:26:07;99682.47;;;15.03;100.00
25658;BME280;13517;59.320;18.042;2023-07-20T07:28:32;99635.69;;;14.81;100.00
25658;BME280;13517;59.320;18.042;2023-07-20T07:30:58;99661.25;;;15.07;100.00
25658;BME280;13517;59.320;18.042;2023-07-20T07:33:23;99665.13;;;15.04;100.00
25658;BME280;13517;59.320;18.042;2023-07-20T07:35:50;99688.81;;;15.30;100.00
25658;BME280;13517;59.320;18.042;2023-07-20T07:38:16;99667.44;;;15.35;100.00
25658;BME280;13517;59.320;18.042;2023-07-20T07:40:42;99680.81;;;15.47;100.00
25658;BME280;13517;59.320;18.042;2023-07-20T07:43:08;99627.53;;;15.18;100.00
25658;BME280;13517;59.320;18.042;2023-07-20T07:45:35;99682.16;;;15.69;100.00
25658;BME280;13517;59.320;18.042;2023-07-20T07:48:07;99689.00;;;15.73;100.00
25658;BME280;13517;59.320;18.042;2023-07-20T07:50:33;99675.34;;;15.65;100.00
25658;BME280;13517;59.320;18.042;2023-07-20T07:52:59;99621.97;;;15.46;100.00
25658;BME280;13517;59.320;18.042;2023-07-20T07:55:25;99686.88;;;15.85;100.00
25658;BME280;13517;59.320;18.042;2023-07-20T07:57:54;99653.25;;;15.68;100.00
25658;BME280;13517;59.320;18.042;2023-07-20T08:00:19;99636.16;;;15.58;100.00
25658;BME280;13517;59.320;18.042;2023-07-20T08:02:45;99681.69;;;15.92;100.00
25658;BME280;13517;59.320;18.042;2023-07-20T08:05:12;99636.91;;;15.68;100.00
25658;BME280;13517;59.320;18.042;2023-07-20T08:07:38;99672.69;;;16.00;100.00
25658;BME280;13517;59.320;18.042;2023-07-20T08:10:04;99681.94;;;16.07;100.00
25658;BME280;13517;59.320;18.042;2023-07-20T08:12:30;99668.97;;;16.01;100.00
25658;BME280;13517;59.320;18.042;2023-07-20T08:14:55;99651.31;;;16.13;100.00
25658;BME280;13517;59.320;18.042;2023-07-20T08:17:21;99643.13;;;16.05;100.00
25658;BME280;13517;59.320;18.042;2023-07-20T08:19:46;99639.91;;;16.10;99.76
25658;BME280;13517;59.320;18.042;2023-07-20T08:22:12;99689.63;;;16.38;98.65
25658;BME280;13517;59.320;18.042;2023-07-20T08:24:41;99692.00;;;16.41;98.10
25658;BME280;13517;59.320;18.042;2023-07-20T08:27:07;99683.19;;;16.56;97.66
25658;BME280;13517;59.320;18.042;2023-07-20T08:29:34;99688.34;;;16.59;96.39
25658;BME280;13517;59.320;18.042;2023-07-20T08:31:59;99658.25;;;16.34;95.12
25658;BME280;13517;59.320;18.042;2023-07-20T08:34:25;99639.06;;;16.09;95.47
25658;BME280;13517;59.320;18.042;2023-07-20T08:36:50;99633.63;;;16.09;95.48
25658;BME280;13517;59.320;18.042;2023-07-20T08:39:16;99659.50;;;16.13;94.95
25658;BME280;13517;59.320;18.042;2023-07-20T08:41:43;99693.03;;;16.40;95.54
25658;BME280;13517;59.320;18.042;2023-07-20T08:44:08;99683.31;;;16.46;95.29
25658;BME280;13517;59.320;18.042;2023-07-20T08:46:35;99667.84;;;16.46;93.61
25658;BME280;13517;59.320;18.042;2023-07-20T08:49:00;99657.25;;;16.43;92.72
25658;BME280;13517;59.320;18.042;2023-07-20T08:51:29;99692.78;;;16.60;91.74
25658;BME280;13517;59.320;18.042;2023-07-20T08:53:54;99666.78;;;16.39;92.15
25658;BME280;13517;59.320;18.042;2023-07-20T08:56:20;99693.78;;;16.59;92.42
25658;BME280;13517;59.320;18.042;2023-07-20T08:58:46;99640.84;;;16.27;92.08
25658;BME280;13517;59.320;18.042;2023-07-20T09:01:12;99654.88;;;16.48;90.53
25658;BME280;13517;59.320;18.042;2023-07-20T09:03:39;99623.56;;;16.53;88.24
25658;BME280;13517;59.320;18.042;2023-07-20T09:06:05;99666.16;;;17.05;85.66
25658;BME280;13517;59.320;18.042;2023-07-20T09:08:31;99688.38;;;17.27;84.34
25658;BME280;13517;59.320;18.042;2023-07-20T09:10:57;99679.66;;;17.40;83.48
25658;BME280;13517;59.320;18.042;2023-07-20T09:13:25;99637.19;;;17.37;82.31
25658;BME280;13517;59.320;18.042;2023-07-20T09:15:54;99679.81;;;17.80;79.67
25658;BME280;13517;59.320;18.042;2023-07-20T09:18:38;99681.69;;;17.71;78.89
25658;BME280;13517;59.320;18.042;2023-07-20T09:21:05;99648.75;;;17.64;80.68
25658;BME280;13517;59.320;18.042;2023-07-20T09:23:37;99684.41;;;17.88;81.34
25658;BME280;13517;59.320;18.042;2023-07-20T09:26:14;99693.97;;;18.08;81.25
25658;BME280;13517;59.320;18.042;2023-07-20T09:28:49;99671.25;;;18.08;78.27
25658;BME280;13517;59.320;18.042;2023-07-20T09:31:19;99647.16;;;18.12;78.08
25658;BME280;13517;59.320;18.042;2023-07-20T09:33:47;99695.50;;;18.59;77.04
25658;BME280;13517;59.320;18.042;2023-07-20T09:36:12;99671.28;;;18.48;76.38
25658;BME280;13517;59.320;18.042;2023-07-20T09:38:39;99696.59;;;18.50;75.58
25658;BME280;13517;59.320;18.042;2023-07-20T09:41:05;99661.75;;;18.35;74.46
25658;BME280;13517;59.320;18.042;2023-07-20T09:43:34;99680.50;;;18.47;72.95
25658;BME280;13517;59.320;18.042;2023-07-20T09:46:00;99674.22;;;18.46;73.45
25658;BME280;13517;59.320;18.042;2023-07-20T09:48:26;99687.59;;;18.73;73.28
25658;BME280;13517;59.320;18.042;2023-07-20T09:50:53;99669.75;;;18.54;72.33
25658;BME280;13517;59.320;18.042;2023-07-20T09:53:19;99628.72;;;18.45;71.46
25658;BME280;13517;59.320;18.042;2023-07-20T09:55:48;99692.53;;;19.09;69.99
25658;BME280;13517;59.320;18.042;2023-07-20T09:58:14;99680.31;;;19.20;68.62
25658;BME280;13517;59.320;18.042;2023-07-20T10:00:42;99691.75;;;19.24;68.91
25658;BME280;13517;59.320;18.042;2023-07-20T10:03:14;99684.69;;;19.29;68.51
25658;BME280;13517;59.320;18.042;2023-07-20T10:05:45;99640.06;;;19.29;67.61
25658;BME280;13517;59.320;18.042;2023-07-20T10:08:12;99661.38;;;19.57;67.03
25658;BME280;13517;59.320;18.042;2023-07-20T10:10:41;99684.31;;;19.56;67.19
25658;BME280;13517;59.320;18.042;2023-07-20T10:13:11;99629.75;;;19.31;67.51
25658;BME280;13517;59.320;18.042;2023-07-20T10:15:54;99667.59;;;19.51;65.62
25658;BME280;13517;59.320;18.042;2023-07-20T10:20:49;99653.41;;;19.47;67.40
25658;BME280;13517;59.320;18.042;2023-07-20T10:23:16;99665.44;;;19.61;67.05
25658;BME280;13517;59.320;18.042;2023-07-20T10:25:42;99655.66;;;19.82;65.49
25658;BME280;13517;59.320;18.042;2023-07-20T10:28:10;99651.13;;;19.89;63.69
25658;BME280;13517;59.320;18.042;2023-07-20T10:30:36;99657.47;;;19.90;63.24
25658;BME280;13517;59.320;18.042;2023-07-20T10:33:03;99677.81;;;19.95;63.12
25658;BME280;13517;59.320;18.042;2023-07-20T10:35:29;99687.22;;;19.78;63.73
25658;BME280;13517;59.320;18.042;2023-07-20T10:38:00;99683.69;;;19.69;61.06
25658;BME280;13517;59.320;18.042;2023-07-20T10:40:28;99676.16;;;19.48;61.92
25658;BME280;13517;59.320;18.042;2023-07-20T10:43:08;99681.63;;;19.48;62.00
25658;BME280;13517;59.320;18.042;2023-07-20T10:45:41;99677.84;;;19.49;61.91
25658;BME280;13517;59.320;18.042;2023-07-20T10:48:15;99698.44;;;19.44;63.71
25658;BME280;13517;59.320;18.042;2023-07-20T10:50:42;99686.78;;;18.96;67.04
25658;BME280;13517;59.320;18.042;2023-07-20T10:53:13;99679.75;;;18.61;68.56
25658;BME280;13517;59.320;18.042;2023-07-20T10:55:39;99644.22;;;18.21;71.00
25658;BME280;13517;59.320;18.042;2023-07-20T10:58:14;99665.78;;;18.08;72.69
25658;BME280;13517;59.320;18.042;2023-07-20T11:01:02;99689.84;;;18.13;72.90
25658;BME280;13517;59.320;18.042;2023-07-20T11:03:33;99692.06;;;18.09;72.76
25658;BME280;13517;59.320;18.042;2023-07-20T11:05:58;99676.03;;;17.97;73.09
25658;BME280;13517;59.320;18.042;2023-07-20T11:08:40;99670.25;;;17.84;73.80
25658;BME280;13517;59.320;18.042;2023-07-20T11:11:37;99679.25;;;17.93;75.34
25658;BME280;13517;59.320;18.042;2023-07-20T11:19:33;99697.72;;;17.91;73.63
25658;BME280;13517;59.320;18.042;2023-07-20T11:21:59;99663.28;;;17.73;73.35
25658;BME280;13517;59.320;18.042;2023-07-20T11:24:24;99699.78;;;17.89;73.21
25658;BME280;13517;59.320;18.042;2023-07-20T11:26:51;99691.59;;;17.80;74.51
25658;BME280;13517;59.320;18.042;2023-07-20T11:29:19;99703.19;;;17.82;75.92
25658;BME280;13517;59.320;18.042;2023-07-20T11:31:46;99688.00;;;17.80;76.95
25658;BME280;13517;59.320;18.042;2023-07-20T11:34:14;99699.09;;;17.87;77.45
25658;BME280;13517;59.320;18.042;2023-07-20T11:36:44;99691.22;;;18.00;78.07
25658;BME280;13517;59.320;18.042;2023-07-20T11:39:11;99693.94;;;18.17;78.35
25658;BME280;13517;59.320;18.042;2023-07-20T11:41:38;99668.69;;;18.15;78.03
25658;BME280;13517;59.320;18.042;2023-07-20T11:44:05;99640.66;;;18.04;76.87
25658;BME280;13517;59.320;18.042;2023-07-20T11:46:39;99684.03;;;18.24;76.06
25658;BME280;13517;59.320;18.042;2023-07-20T11:49:05;99704.47;;;18.45;76.45
25658;BME280;13517;59.320;18.042;2023-07-20T11:51:31;99705.47;;;18.52;75.05
25658;BME280;13517;59.320;18.042;2023-07-20T11:53:57;99662.19;;;18.16;73.52
25658;BME280;13517;59.320;18.042;2023-07-20T11:56:24;99700.69;;;18.46;72.28
25658;BME280;13517;59.320;18.042;2023-07-20T11:58:50;99713.75;;;18.75;70.50
25658;BME280;13517;59.320;18.042;2023-07-20T12:01:19;99710.47;;;18.80;68.20
25658;BME280;13517;59.320;18.042;2023-07-20T12:03:47;99693.34;;;18.86;67.15
25658;BME280;13517;59.320;18.042;2023-07-20T12:06:13;99708.91;;;19.17;66.63
25658;BME280;13517;59.320;18.042;2023-07-20T12:08:41;99702.16;;;19.28;65.25
25658;BME280;13517;59.320;18.042;2023-07-20T12:11:07;99703.44;;;19.17;65.54
25658;BME280;13517;59.320;18.042;2023-07-20T12:13:41;99697.41;;;19.22;66.23
25658;BME280;13517;59.320;18.042;2023-07-20T12:16:11;99668.22;;;19.14;66.10
25658;BME280;13517;59.320;18.042;2023-07-20T12:18:37;99663.41;;;19.16;66.65
25658;BME280;13517;59.320;18.042;2023-07-20T12:21:02;99654.16;;;19.17;65.90
25658;BME280;13517;59.320;18.042;2023-07-20T12:23:35;99687.97;;;19.48;64.95
25658;BME280;13517;59.320;18.042;2023-07-20T12:26:02;99650.94;;;19.37;64.63
25658;BME280;13517;59.320;18.042;2023-07-20T12:28:29;99642.34;;;19.40;64.10
25658;BME280;13517;59.320;18.042;2023-07-20T12:30:55;99681.91;;;19.76;64.10
25658;BME280;13517;59.320;18.042;2023-07-20T12:33:23;99694.28;;;20.10;63.91
25658;BME280;13517;59.320;18.042;2023-07-20T12:35:49;99656.66;;;20.19;63.77
25658;BME280;13517;59.320;18.042;2023-07-20T12:38:15;99665.75;;;20.35;63.01
25658;BME280;13517;59.320;18.042;2023-07-20T12:40:41;99635.75;;;20.18;62.57
25658;BME280;13517;59.320;18.042;2023-07-20T12:43:07;99705.28;;;20.55;62.74
25658;BME280;13517;59.320;18.042;2023-07-20T12:45:33;99664.47;;;20.37;62.73
25658;BME280;13517;59.320;18.042;2023-07-20T12:47:58;99694.47;;;20.54;62.68
25658;BME280;13517;59.320;18.042;2023-07-20T12:50:24;99696.00;;;20.57;62.69
25658;BME280;13517;59.320;18.042;2023-07-20T12:52:50;99696.22;;;20.77;62.86
25658;BME280;13517;59.320;18.042;2023-07-20T12:55:15;99634.47;;;20.66;62.82